Time;durP1;ratioP1;P1;durP2;ratioP2;P2;SDS_P1;SDS_P2;PMS_P1;PMS_P2;Temp;Humidity;BMP_temperature;BMP_pressure;BME280_temperature;BME280_humidity;BME280_pressure;Samples;Min_cycle;Max_cycle;Signal;HPM_P1;HPM_P2
2022/10/31 00:02:12;;;;;;;117.43;48.55;;;;;;;;;;8357935;28;20450;-89
2022/10/31 00:06:17;;;;;;;85.35;34.28;;;;;;;;;;8357237;28;20455;-90
2022/10/31 00:10:21;;;;;;;87.40;29.40;;;;;;;;;;8358071;28;20128;-88
2022/10/31 00:14:24;;;;;;;70.15;28.80;;;;;;;;;;8361588;28;20064;-88
2022/10/31 00:18:26;;;;;;;71.30;28.17;;;;;;;;;;8363441;28;20037;-90
2022/10/31 00:22:29;;;;;;;69.50;28.80;;;;;;;;;;8362957;28;20056;-90
2022/10/31 00:26:33;;;;;;;68.88;28.15;;;;;;;;;;8362949;28;20041;-90
2022/10/31 00:30:35;;;;;;;67.55;29.67;;;;;;;;;;8362637;28;20072;-90
2022/10/31 00:34:38;;;;;;;91.22;35.08;;;;;;;;;;8362684;28;20091;-89
2022/10/31 00:38:41;;;;;;;95.53;37.05;;;;;;;;;;8364736;28;20404;-91
2022/10/31 00:42:44;;;;;;;88.43;33.03;;;;;;;;;;8362488;28;20040;-90
2022/10/31 00:46:47;;;;;;;82.50;32.65;;;;;;;;;;8362389;28;20041;-86
2022/10/31 00:50:49;;;;;;;86.78;33.40;;;;;;;;;;8360585;28;20099;-90
2022/10/31 00:54:52;;;;;;;92.47;34.15;;;;;;;;;;8356812;28;20048;-90
2022/10/31 00:58:56;;;;;;;82.93;32.70;;;;;;;;;;8359872;28;20125;-84
2022/10/31 01:02:58;;;;;;;76.45;31.75;;;;;;;;;;8356206;28;20419;-90
2022/10/31 01:07:01;;;;;;;72.72;28.17;;;;;;;;;;8359075;28;20037;-85
2022/10/31 01:11:07;;;;;;;69.97;26.40;;;;;;;;;;8360206;28;20129;-89
2022/10/31 01:15:13;;;;;;;74.15;29.55;;;;;;;;;;8358105;28;20045;-88
2022/10/31 01:19:15;;;;;;;74.57;29.40;;;;;;;;;;8360404;28;20068;-89
2022/10/31 01:23:18;;;;;;;75.95;29.75;;;;;;;;;;8359231;28;20059;-87
2022/10/31 01:27:20;;;;;;;75.18;28.25;;;;;;;;;;8359360;28;20065;-84
2022/10/31 01:31:26;;;;;;;80.57;30.48;;;;;;;;;;8360929;28;20472;-86
2022/10/31 01:35:29;;;;;;;80.40;29.85;;;;;;;;;;8360135;28;20044;-84
2022/10/31 01:39:32;;;;;;;64.18;26.60;;;;;;;;;;8360770;28;20045;-91
2022/10/31 01:43:45;;;;;;;59.55;27.00;;;;;;;;;;8360288;28;20056;-90
2022/10/31 01:47:50;;;;;;;64.13;26.70;;;;;;;;;;8360379;28;20392;-91
2022/10/31 01:51:57;;;;;;;61.72;26.42;;;;;;;;;;8359622;28;20071;-87
2022/10/31 01:56:01;;;;;;;65.40;26.90;;;;;;;;;;8358347;28;20044;-89
2022/10/31 02:00:07;;;;;;;69.40;28.65;;;;;;;;;;8360299;28;20049;-90
2022/10/31 02:04:12;;;;;;;66.15;28.08;;;;;;;;;;8360848;28;21565;-86
2022/10/31 02:08:19;;;;;;;71.25;28.65;;;;;;;;;;8359737;28;20396;-88
2022/10/31 02:12:22;;;;;;;63.08;26.75;;;;;;;;;;8360830;28;20059;-86
2022/10/31 02:16:25;;;;;;;62.80;26.55;;;;;;;;;;8358289;28;20049;-84
2022/10/31 02:20:33;;;;;;;66.93;25.77;;;;;;;;;;8357563;28;20041;-88
2022/10/31 02:24:47;;;;;;;59.45;26.40;;;;;;;;;;8357531;28;20045;-88
2022/10/31 02:29:15;;;;;;;56.47;24.80;;;;;;;;;;8357920;28;20090;-89
2022/10/31 02:33:27;;;;;;;58.83;25.02;;;;;;;;;;8358947;28;20048;-85
2022/10/31 02:37:35;;;;;;;;;;;;;;;;;;8357144;28;20071;-91
2022/10/31 02:41:44;;;;;;;53.05;22.23;;;;;;;;;;8358478;28;19928;-89
2022/10/31 02:45:51;;;;;;;51.42;22.73;;;;;;;;;;8358276;28;20064;-84
2022/10/31 02:50:00;;;;;;;51.22;22.38;;;;;;;;;;8357753;28;20481;-87
2022/10/31 02:54:03;;;;;;;57.10;23.75;;;;;;;;;;8357710;28;20119;-91
2022/10/31 02:58:09;;;;;;;48.22;22.73;;;;;;;;;;8358015;28;20041;-89
2022/10/31 03:02:36;;;;;;;53.97;22.50;;;;;;;;;;8358623;28;20049;-91
2022/10/31 03:06:46;;;;;;;54.50;24.35;;;;;;;;;;8357791;28;20049;-90
2022/10/31 03:10:56;;;;;;;54.42;25.08;;;;;;;;;;8359848;28;20053;-87
2022/10/31 03:15:08;;;;;;;56.17;23.83;;;;;;;;;;8359246;28;20049;-91
2022/10/31 03:19:15;;;;;;;59.05;25.05;;;;;;;;;;8358543;28;20424;-90
2022/10/31 03:23:23;;;;;;;59.92;23.33;;;;;;;;;;8357529;28;20048;-91
2022/10/31 03:27:28;;;;;;;53.58;24.15;;;;;;;;;;8358089;28;20045;-90
2022/10/31 03:31:36;;;;;;;58.28;23.83;;;;;;;;;;8356715;28;20045;-92
2022/10/31 03:35:43;;;;;;;48.38;22.90;;;;;;;;;;8357210;28;20041;-92
2022/10/31 03:39:50;;;;;;;53.08;22.95;;;;;;;;;;8358107;28;20543;-88
2022/10/31 03:43:57;;;;;;;44.15;21.42;;;;;;;;;;8360295;28;20112;-83
2022/10/31 03:48:00;;;;;;;44.72;19.58;;;;;;;;;;8361522;28;20132;-85
2022/10/31 03:52:11;;;;;;;49.90;22.30;;;;;;;;;;8363143;28;20049;-88
2022/10/31 03:56:20;;;;;;;59.92;22.58;;;;;;;;;;8364690;28;20048;-84
2022/10/31 04:00:23;;;;;;;48.50;21.27;;;;;;;;;;8364828;28;20488;-89
2022/10/31 04:04:26;;;;;;;50.67;21.52;;;;;;;;;;8364616;28;20059;-90
2022/10/31 04:08:31;;;;;;;47.33;20.15;;;;;;;;;;8364122;28;20036;-88
2022/10/31 04:12:37;;;;;;;51.67;22.15;;;;;;;;;;8364574;28;20060;-90
2022/10/31 04:16:42;;;;;;;53.58;22.75;;;;;;;;;;8362985;28;20045;-89
2022/10/31 04:20:44;;;;;;;79.55;34.20;;;;;;;;;;8362984;28;20086;-91
2022/10/31 04:24:47;;;;;;;67.10;27.38;;;;;;;;;;8362901;28;20118;-89
2022/10/31 04:28:50;;;;;;;63.58;26.27;;;;;;;;;;8363838;28;20071;-87
2022/10/31 04:32:53;;;;;;;58.15;24.60;;;;;;;;;;8362533;28;20053;-83
2022/10/31 04:36:55;;;;;;;57.88;23.25;;;;;;;;;;8363208;28;20045;-91
2022/10/31 04:40:58;;;;;;;56.58;24.13;;;;;;;;;;8363951;28;20052;-89
2022/10/31 04:45:01;;;;;;;71.47;26.85;;;;;;;;;;8363352;28;20052;-83
2022/10/31 04:49:04;;;;;;;59.20;22.33;;;;;;;;;;8363368;28;20049;-91
2022/10/31 04:53:06;;;;;;;52.85;21.48;;;;;;;;;;8363064;28;20037;-87
2022/10/31 04:57:09;;;;;;;65.13;22.60;;;;;;;;;;8363135;28;20630;-86
2022/10/31 05:01:14;;;;;;;64.65;23.77;;;;;;;;;;8362049;28;20468;-88
2022/10/31 05:05:18;;;;;;;68.10;27.98;;;;;;;;;;8362344;28;20095;-90
2022/10/31 05:09:20;;;;;;;68.13;27.80;;;;;;;;;;8362155;28;20076;-88
2022/10/31 05:13:23;;;;;;;64.70;23.38;;;;;;;;;;8361554;28;20048;-84
2022/10/31 05:17:27;;;;;;;55.83;22.63;;;;;;;;;;8361097;28;20053;-89
2022/10/31 05:21:29;;;;;;;49.45;20.95;;;;;;;;;;8364511;28;20041;-92
2022/10/31 05:25:32;;;;;;;65.88;23.98;;;;;;;;;;8362255;28;20052;-92
2022/10/31 05:29:34;;;;;;;68.82;22.38;;;;;;;;;;8359988;28;20037;-87
2022/10/31 05:33:38;;;;;;;69.30;22.88;;;;;;;;;;8363169;28;20091;-91
2022/10/31 05:37:41;;;;;;;75.50;25.88;;;;;;;;;;8365447;28;20037;-90
2022/10/31 05:41:43;;;;;;;102.85;28.25;;;;;;;;;;8365783;28;20041;-84
2022/10/31 05:45:47;;;;;;;122.40;32.28;;;;;;;;;;8365901;28;20087;-94
2022/10/31 05:49:51;;;;;;;88.63;27.20;;;;;;;;;;8338161;28;20103;-93
2022/10/31 05:53:53;;;;;;;68.75;20.67;;;;;;;;;;8364626;28;20045;-90
2022/10/31 05:57:56;;;;;;;79.10;24.45;;;;;;;;;;8361913;28;20115;-83
2022/10/31 06:01:59;;;;;;;61.72;22.30;;;;;;;;;;8363960;28;20182;-85
2022/10/31 06:06:03;;;;;;;144.13;24.17;;;;;;;;;;8365212;28;20041;-88
2022/10/31 06:10:10;;;;;;;90.13;30.13;;;;;;;;;;8360725;28;20489;-83
2022/10/31 06:14:12;;;;;;;72.47;25.27;;;;;;;;;;8363011;28;20075;-89
2022/10/31 06:18:15;;;;;;;72.47;25.25;;;;;;;;;;8359194;28;20072;-87
2022/10/31 06:22:21;;;;;;;53.17;24.33;;;;;;;;;;8362313;28;20072;-88
2022/10/31 06:26:24;;;;;;;63.35;24.30;;;;;;;;;;8364298;28;20544;-91
2022/10/31 06:30:26;;;;;;;53.00;20.60;;;;;;;;;;8362983;28;20053;-88
2022/10/31 06:34:29;;;;;;;51.17;23.13;;;;;;;;;;8363681;28;20076;-88
2022/10/31 06:38:33;;;;;;;46.10;20.42;;;;;;;;;;8355375;28;20049;-86
2022/10/31 06:42:38;;;;;;;51.03;24.30;;;;;;;;;;8361015;28;20539;-92
2022/10/31 06:46:41;;;;;;;45.85;24.20;;;;;;;;;;8357025;28;20072;-89
2022/10/31 06:50:43;;;;;;;36.63;20.35;;;;;;;;;;8363488;28;20540;-87
2022/10/31 06:54:49;;;;;;;35.63;18.95;;;;;;;;;;8359792;28;20060;-82
2022/10/31 06:58:51;;;;;;;31.35;17.25;;;;;;;;;;8361965;28;20041;-87
2022/10/31 07:02:57;;;;;;;32.78;18.13;;;;;;;;;;8362009;28;20060;-87
2022/10/31 07:07:01;;;;;;;47.92;25.00;;;;;;;;;;8363242;28;20120;-91
2022/10/31 07:11:05;;;;;;;36.15;19.35;;;;;;;;;;8362845;28;20049;-92
2022/10/31 07:15:09;;;;;;;30.13;15.57;;;;;;;;;;8367887;28;20048;-84
2022/10/31 07:19:11;;;;;;;31.27;17.70;;;;;;;;;;8366099;28;20137;-85
2022/10/31 07:23:14;;;;;;;35.13;18.63;;;;;;;;;;8357141;28;20049;-88
2022/10/31 07:27:18;;;;;;;28.85;17.55;;;;;;;;;;8362693;28;20102;-87
2022/10/31 07:31:20;;;;;;;22.67;15.45;;;;;;;;;;8361482;28;20480;-88
2022/10/31 07:35:24;;;;;;;29.65;14.60;;;;;;;;;;8362253;28;20052;-86
2022/10/31 07:39:27;;;;;;;23.10;14.07;;;;;;;;;;8361059;28;20785;-91
2022/10/31 07:43:31;;;;;;;18.73;12.35;;;;;;;;;;8361507;28;20469;-92
2022/10/31 07:47:40;;;;;;;19.17;11.65;;;;;;;;;;8365173;28;20048;-90
2022/10/31 07:51:42;;;;;;;18.05;12.18;;;;;;;;;;8363474;28;20041;-86
2022/10/31 07:55:45;;;;;;;17.00;11.57;;;;;;;;;;8361722;28;20041;-85
2022/10/31 07:59:48;;;;;;;16.35;10.23;;;;;;;;;;8352550;28;20077;-86
2022/10/31 08:03:51;;;;;;;18.27;11.38;;;;;;;;;;8359042;28;20107;-85
2022/10/31 08:07:54;;;;;;;16.98;12.98;;;;;;;;;;8357063;28;20037;-91
2022/10/31 08:11:56;;;;;;;22.90;15.25;;;;;;;;;;8357154;28;20096;-93
2022/10/31 08:16:04;;;;;;;33.97;21.85;;;;;;;;;;8349861;28;20103;-90
2022/10/31 08:20:07;;;;;;;59.97;34.53;;;;;;;;;;8356912;28;20396;-91
2022/10/31 08:24:10;;;;;;;28.23;19.40;;;;;;;;;;8360850;28;20037;-86
2022/10/31 08:28:12;;;;;;;20.90;13.82;;;;;;;;;;8359556;28;20056;-85
2022/10/31 08:32:16;;;;;;;25.95;14.65;;;;;;;;;;8360870;28;20515;-94
2022/10/31 08:36:19;;;;;;;32.03;21.42;;;;;;;;;;8364003;28;20062;-87
2022/10/31 08:40:22;;;;;;;22.92;17.65;;;;;;;;;;8362090;28;20048;-87
2022/10/31 08:44:24;;;;;;;25.17;15.52;;;;;;;;;;8367220;28;20124;-89
2022/10/31 08:48:29;;;;;;;24.27;16.00;;;;;;;;;;8371400;28;20037;-87
2022/10/31 08:52:31;;;;;;;23.88;15.07;;;;;;;;;;8367144;28;20108;-91
2022/10/31 08:56:34;;;;;;;21.45;15.18;;;;;;;;;;8364909;28;20037;-88
2022/10/31 09:00:37;;;;;;;21.88;15.75;;;;;;;;;;8355147;28;20094;-87
2022/10/31 09:04:41;;;;;;;23.00;16.02;;;;;;;;;;8366128;28;20408;-84
2022/10/31 09:08:43;;;;;;;25.15;15.95;;;;;;;;;;8365992;28;20041;-88
2022/10/31 09:12:46;;;;;;;28.67;15.98;;;;;;;;;;8372423;28;20049;-88
2022/10/31 09:16:48;;;;;;;26.48;16.55;;;;;;;;;;8366368;28;20049;-92
2022/10/31 09:20:52;;;;;;;23.45;15.63;;;;;;;;;;8365948;28;20112;-90
2022/10/31 09:24:55;;;;;;;25.75;18.42;;;;;;;;;;8366573;28;20051;-87
2022/10/31 09:28:58;;;;;;;24.95;14.95;;;;;;;;;;8366068;28;20102;-85
2022/10/31 09:33:04;;;;;;;21.63;15.05;;;;;;;;;;8364223;28;20051;-88
2022/10/31 09:37:08;;;;;;;25.08;15.00;;;;;;;;;;8364475;28;20049;-88
2022/10/31 09:41:20;;;;;;;26.77;16.75;;;;;;;;;;8363636;28;20098;-86
2022/10/31 09:45:28;;;;;;;27.02;15.57;;;;;;;;;;8365001;28;20044;-88
2022/10/31 09:49:55;;;;;;;21.80;14.57;;;;;;;;;;8364587;28;20067;-88
2022/10/31 09:54:05;;;;;;;21.75;15.40;;;;;;;;;;8359501;28;20539;-85
2022/10/31 09:58:14;;;;;;;28.80;18.17;;;;;;;;;;8376146;28;20097;-86
2022/10/31 10:02:22;;;;;;;26.98;15.07;;;;;;;;;;8351426;28;20115;-85
2022/10/31 10:06:28;;;;;;;25.02;16.52;;;;;;;;;;8359082;28;20488;-85
2022/10/31 10:10:41;;;;;;;27.52;14.35;;;;;;;;;;8358784;28;20049;-95
2022/10/31 10:15:09;;;;;;;24.38;14.90;;;;;;;;;;8359817;28;20052;-92
2022/10/31 10:19:25;;;;;;;28.73;15.70;;;;;;;;;;8370306;28;20041;-92
2022/10/31 10:23:47;;;;;;;25.15;15.27;;;;;;;;;;8367242;28;20058;-90
2022/10/31 10:28:04;;;;;;;25.08;15.50;;;;;;;;;;8357993;28;20037;-88
2022/10/31 10:32:14;;;;;;;26.63;13.52;;;;;;;;;;8358335;28;20481;-92
2022/10/31 10:36:22;;;;;;;28.10;15.18;;;;;;;;;;8352218;28;20075;-88
2022/10/31 10:40:28;;;;;;;21.25;13.52;;;;;;;;;;8357121;28;20056;-88
2022/10/31 10:49:03;;;;;;;25.48;14.02;;;;;;;;;;8359547;28;20617;-92
2022/10/31 10:53:21;;;;;;;21.48;13.13;;;;;;;;;;8359592;28;20057;-89
2022/10/31 10:57:42;;;;;;;22.52;13.40;;;;;;;;;;8360427;28;20102;-93
2022/10/31 11:01:50;;;;;;;22.35;14.40;;;;;;;;;;8373185;28;20075;-88
2022/10/31 11:05:56;;;;;;;21.52;13.68;;;;;;;;;;8365012;28;20480;-87
2022/10/31 11:10:12;;;;;;;28.48;14.38;;;;;;;;;;8368136;28;20055;-87
2022/10/31 11:14:20;;;;;;;27.10;14.43;;;;;;;;;;8363324;28;20064;-87
2022/10/31 11:18:27;;;;;;;22.92;12.43;;;;;;;;;;8365035;28;20044;-95
2022/10/31 11:22:30;;;;;;;24.42;15.02;;;;;;;;;;8362801;28;20040;-86
2022/10/31 11:26:34;;;;;;;28.67;13.90;;;;;;;;;;8360228;28;20041;-87
2022/10/31 11:30:45;;;;;;;23.02;13.73;;;;;;;;;;8361902;28;20128;-88
2022/10/31 11:34:52;;;;;;;25.20;13.43;;;;;;;;;;8348423;28;20119;-89
2022/10/31 11:38:55;;;;;;;20.30;12.32;;;;;;;;;;8356701;28;20045;-89
2022/10/31 11:42:59;;;;;;;25.02;14.13;;;;;;;;;;8364156;28;20037;-87
2022/10/31 11:47:05;;;;;;;27.42;13.68;;;;;;;;;;8364804;28;20133;-90
2022/10/31 11:51:09;;;;;;;25.98;13.98;;;;;;;;;;8365024;28;20106;-92
2022/10/31 11:55:18;;;;;;;31.08;13.55;;;;;;;;;;8367903;28;20033;-91
2022/10/31 11:59:28;;;;;;;25.52;12.77;;;;;;;;;;8368879;28;20045;-90
2022/10/31 12:03:56;;;;;;;36.72;17.90;;;;;;;;;;8362836;28;20088;-91
2022/10/31 12:08:00;;;;;;;25.45;12.93;;;;;;;;;;8367006;28;20112;-85
2022/10/31 12:12:31;;;;;;;20.52;11.88;;;;;;;;;;8369928;28;20542;-92
2022/10/31 12:16:41;;;;;;;21.33;12.23;;;;;;;;;;8361317;28;20059;-88
2022/10/31 12:20:55;;;;;;;24.15;11.75;;;;;;;;;;8368099;28;20129;-89
2022/10/31 12:25:36;;;;;;;25.20;12.30;;;;;;;;;;8368530;28;20045;-92
2022/10/31 12:29:55;;;;;;;19.87;12.00;;;;;;;;;;8358388;28;20120;-88
2022/10/31 12:34:13;;;;;;;21.77;11.45;;;;;;;;;;8360652;28;20304;-90
2022/10/31 12:38:48;;;;;;;20.00;10.73;;;;;;;;;;8371041;28;20132;-90
2022/10/31 12:43:05;;;;;;;21.70;11.48;;;;;;;;;;8368144;28;20584;-91
2022/10/31 12:47:41;;;;;;;22.10;12.02;;;;;;;;;;8356750;28;20477;-88
2022/10/31 12:51:52;;;;;;;24.33;12.15;;;;;;;;;;8367435;28;20066;-88
2022/10/31 12:56:12;;;;;;;24.47;12.77;;;;;;;;;;8367331;28;20045;-87
2022/10/31 13:00:17;;;;;;;20.98;11.93;;;;;;;;;;8367330;28;20049;-92
2022/10/31 13:04:25;;;;;;;27.42;13.65;;;;;;;;;;8366277;28;20435;-92
2022/10/31 13:08:31;;;;;;;25.83;12.75;;;;;;;;;;8366731;28;20095;-88
2022/10/31 13:12:35;;;;;;;29.77;13.45;;;;;;;;;;8366878;28;20053;-86
2022/10/31 13:16:43;;;;;;;21.90;12.35;;;;;;;;;;8368174;28;20053;-87
2022/10/31 13:20:49;;;;;;;27.63;12.25;;;;;;;;;;8364439;28;20124;-87
2022/10/31 13:24:56;;;;;;;25.77;11.52;;;;;;;;;;8366171;28;20059;-88
2022/10/31 13:29:06;;;;;;;20.60;11.38;;;;;;;;;;8368758;28;20083;-93
2022/10/31 13:33:17;;;;;;;23.48;12.48;;;;;;;;;;8377414;28;20059;-95
2022/10/31 13:37:31;;;;;;;25.38;13.80;;;;;;;;;;8372403;28;20048;-88
2022/10/31 13:41:41;;;;;;;33.97;12.55;;;;;;;;;;8366358;28;20591;-87
2022/10/31 13:45:53;;;;;;;24.58;12.80;;;;;;;;;;8365541;28;20473;-89
2022/10/31 13:50:19;;;;;;;23.60;12.30;;;;;;;;;;8370184;28;20118;-87
2022/10/31 13:54:25;;;;;;;25.15;12.30;;;;;;;;;;8367296;28;20056;-88
2022/10/31 13:58:31;;;;;;;27.70;12.15;;;;;;;;;;8367625;28;20472;-87
2022/10/31 14:02:37;;;;;;;21.33;11.70;;;;;;;;;;8368299;28;20056;-83
2022/10/31 14:06:45;;;;;;;21.55;11.85;;;;;;;;;;8365420;28;20045;-84
2022/10/31 14:10:51;;;;;;;22.73;12.27;;;;;;;;;;8365679;28;20115;-85
2022/10/31 14:14:58;;;;;;;28.13;12.07;;;;;;;;;;8365168;28;20041;-84
2022/10/31 14:19:05;;;;;;;25.77;13.55;;;;;;;;;;8363170;28;20045;-83
2022/10/31 14:23:40;;;;;;;28.70;13.00;;;;;;;;;;8361883;28;20128;-85
2022/10/31 14:27:47;;;;;;;25.65;13.52;;;;;;;;;;8348651;28;20091;-83
2022/10/31 14:31:54;;;;;;;26.08;13.10;;;;;;;;;;8361365;28;20041;-83
2022/10/31 14:36:09;;;;;;;24.40;13.23;;;;;;;;;;8363262;28;20106;-84
2022/10/31 14:40:28;;;;;;;22.63;12.43;;;;;;;;;;8351432;28;20454;-85
2022/10/31 14:45:06;;;;;;;28.95;13.88;;;;;;;;;;8364165;28;20041;-83
2022/10/31 14:49:27;;;;;;;30.30;13.93;;;;;;;;;;8358715;28;20180;-83
2022/10/31 14:53:33;;;;;;;26.15;14.18;;;;;;;;;;8363784;28;20086;-83
2022/10/31 14:57:39;;;;;;;79.68;22.52;;;;;;;;;;8363834;28;20611;-84
2022/10/31 15:01:54;;;;;;;31.88;14.80;;;;;;;;;;8363231;28;20065;-84
2022/10/31 15:06:00;;;;;;;29.15;15.05;;;;;;;;;;8363380;28;20049;-85
2022/10/31 15:10:06;;;;;;;60.63;20.30;;;;;;;;;;8363538;28;20162;-85
2022/10/31 15:14:24;;;;;;;42.40;18.67;;;;;;;;;;8370153;28;20045;-82
2022/10/31 15:18:29;;;;;;;34.08;16.98;;;;;;;;;;8357257;28;20049;-95
2022/10/31 15:22:32;;;;;;;33.47;18.85;;;;;;;;;;8360317;28;20064;-84
2022/10/31 15:26:41;;;;;;;33.25;17.02;;;;;;;;;;8366177;28;20053;-85
2022/10/31 15:30:53;;;;;;;40.47;21.75;;;;;;;;;;8364085;28;20099;-87
2022/10/31 15:34:57;;;;;;;65.95;32.13;;;;;;;;;;8353019;28;20045;-86
2022/10/31 15:39:00;;;;;;;89.75;39.80;;;;;;;;;;8363015;28;20516;-88
2022/10/31 15:43:06;;;;;;;68.22;31.38;;;;;;;;;;8362434;28;20053;-84
2022/10/31 15:47:17;;;;;;;53.22;25.67;;;;;;;;;;8368636;28;20056;-84
2022/10/31 15:51:27;;;;;;;41.15;23.65;;;;;;;;;;8365404;28;20052;-84
2022/10/31 15:55:33;;;;;;;64.75;28.13;;;;;;;;;;8366647;28;20068;-87
2022/10/31 15:59:46;;;;;;;85.95;38.08;;;;;;;;;;8361458;28;20048;-84
2022/10/31 16:04:00;;;;;;;88.60;35.85;;;;;;;;;;8348997;28;20493;-91
2022/10/31 16:08:02;;;;;;;91.50;38.55;;;;;;;;;;8351284;28;20049;-86
2022/10/31 16:12:05;;;;;;;89.97;40.60;;;;;;;;;;8359719;28;20052;-93
2022/10/31 16:16:13;;;;;;;85.47;36.92;;;;;;;;;;8360279;28;21557;-84
2022/10/31 16:20:24;;;;;;;65.32;29.92;;;;;;;;;;8355279;28;20078;-86
2022/10/31 16:24:30;;;;;;;65.38;32.00;;;;;;;;;;8359521;28;20044;-85
2022/10/31 16:28:34;;;;;;;63.30;29.10;;;;;;;;;;8349290;28;20480;-89
2022/10/31 16:32:52;;;;;;;51.60;24.42;;;;;;;;;;8357405;28;20067;-87
2022/10/31 16:36:56;;;;;;;57.92;26.75;;;;;;;;;;8363327;28;20049;-86
2022/10/31 16:41:01;;;;;;;63.80;27.85;;;;;;;;;;8361277;28;20084;-85
2022/10/31 16:45:06;;;;;;;52.53;25.83;;;;;;;;;;8359705;28;20481;-90
2022/10/31 16:49:10;;;;;;;64.30;30.30;;;;;;;;;;8359419;28;20053;-85
2022/10/31 16:53:15;;;;;;;62.35;31.48;;;;;;;;;;8359736;28;20928;-84
2022/10/31 16:57:21;;;;;;;130.52;56.20;;;;;;;;;;8359998;28;20051;-83
2022/10/31 17:01:24;;;;;;;105.57;47.17;;;;;;;;;;8357855;28;20048;-84
2022/10/31 17:05:29;;;;;;;167.88;63.97;;;;;;;;;;8356974;28;20056;-84
2022/10/31 17:09:33;;;;;;;103.15;50.20;;;;;;;;;;8356626;28;20053;-83
2022/10/31 17:13:35;;;;;;;44.13;22.08;;;;;;;;;;8364734;28;20040;-83
2022/10/31 17:17:38;;;;;;;44.28;22.92;;;;;;;;;;8355376;28;20045;-83
2022/10/31 17:21:41;;;;;;;40.53;21.98;;;;;;;;;;8351456;28;20048;-83
2022/10/31 17:25:47;;;;;;;44.13;24.88;;;;;;;;;;8356233;28;20041;-94
2022/10/31 17:29:51;;;;;;;40.75;22.63;;;;;;;;;;8356985;28;20416;-83
2022/10/31 17:33:55;;;;;;;49.28;24.27;;;;;;;;;;8356923;28;20473;-87
2022/10/31 17:37:59;;;;;;;57.78;26.25;;;;;;;;;;8353040;28;20439;-83
2022/10/31 17:42:03;;;;;;;144.02;55.88;;;;;;;;;;8351411;28;20076;-85
2022/10/31 17:46:06;;;;;;;242.23;80.45;;;;;;;;;;8357392;28;20057;-89
2022/10/31 17:50:10;;;;;;;71.63;33.22;;;;;;;;;;8357447;28;20074;-83
2022/10/31 17:54:17;;;;;;;60.65;28.27;;;;;;;;;;8356276;28;20497;-83
2022/10/31 17:58:21;;;;;;;70.45;29.23;;;;;;;;;;8354768;28;20108;-83
2022/10/31 18:02:25;;;;;;;66.15;29.58;;;;;;;;;;8357714;28;20064;-88
2022/10/31 18:06:30;;;;;;;65.63;30.50;;;;;;;;;;8360494;28;20048;-92
2022/10/31 18:10:33;;;;;;;68.18;28.73;;;;;;;;;;8339090;28;20381;-88
2022/10/31 18:14:37;;;;;;;53.55;22.95;;;;;;;;;;8353043;28;20049;-82
2022/10/31 18:18:41;;;;;;;85.43;37.42;;;;;;;;;;8353086;28;20468;-86
2022/10/31 18:22:44;;;;;;;81.05;35.20;;;;;;;;;;8351311;28;20066;-83
2022/10/31 18:26:47;;;;;;;65.47;29.88;;;;;;;;;;8348560;28;20044;-91
2022/10/31 18:30:51;;;;;;;55.60;26.48;;;;;;;;;;8353907;28;20049;-83
2022/10/31 18:34:55;;;;;;;64.57;28.65;;;;;;;;;;8356534;28;20048;-82
2022/10/31 18:38:58;;;;;;;59.40;27.75;;;;;;;;;;8359135;28;20056;-83
2022/10/31 18:43:01;;;;;;;56.53;26.30;;;;;;;;;;8360806;28;20135;-82
2022/10/31 18:47:05;;;;;;;72.97;33.85;;;;;;;;;;8358376;28;20063;-92
2022/10/31 18:51:10;;;;;;;72.03;29.35;;;;;;;;;;8364582;28;20049;-88
2022/10/31 18:55:13;;;;;;;74.03;34.50;;;;;;;;;;8362001;28;20067;-84
2022/10/31 18:59:17;;;;;;;88.22;41.22;;;;;;;;;;8355398;28;20505;-81
2022/10/31 19:03:22;;;;;;;94.60;45.50;;;;;;;;;;8362218;28;20045;-82
2022/10/31 19:07:25;;;;;;;106.75;40.85;;;;;;;;;;8363752;28;20048;-84
2022/10/31 19:11:28;;;;;;;79.78;36.70;;;;;;;;;;8361636;28;20416;-84
2022/10/31 19:15:31;;;;;;;71.68;36.65;;;;;;;;;;8359981;28;20045;-83
2022/10/31 19:19:35;;;;;;;83.70;39.58;;;;;;;;;;8353764;28;20040;-83
2022/10/31 19:23:40;;;;;;;75.55;35.95;;;;;;;;;;8364784;28;20619;-83
2022/10/31 19:27:43;;;;;;;82.25;37.25;;;;;;;;;;8350738;28;20053;-95
2022/10/31 19:31:48;;;;;;;72.60;35.60;;;;;;;;;;8363718;28;20053;-91
2022/10/31 19:35:53;;;;;;;74.00;34.97;;;;;;;;;;8364151;28;20071;-82
2022/10/31 19:39:56;;;;;;;81.07;34.50;;;;;;;;;;8364007;28;20190;-81
2022/10/31 19:44:01;;;;;;;91.25;42.15;;;;;;;;;;8364761;28;20105;-86
2022/10/31 19:48:05;;;;;;;99.78;44.00;;;;;;;;;;8365118;28;20474;-93
2022/10/31 19:52:09;;;;;;;127.15;53.13;;;;;;;;;;8363522;28;20045;-83
2022/10/31 19:56:13;;;;;;;89.82;38.08;;;;;;;;;;8364789;28;20045;-85
2022/10/31 20:00:16;;;;;;;128.25;45.28;;;;;;;;;;8364790;28;20466;-93
2022/10/31 20:04:20;;;;;;;111.30;40.38;;;;;;;;;;8363404;28;20492;-82
2022/10/31 20:08:25;;;;;;;107.80;37.83;;;;;;;;;;8363486;28;20090;-92
2022/10/31 20:12:27;;;;;;;89.68;36.78;;;;;;;;;;8363270;28;20623;-82
2022/10/31 20:16:31;;;;;;;109.03;39.80;;;;;;;;;;8363223;28;20041;-81
2022/10/31 20:20:35;;;;;;;144.77;50.90;;;;;;;;;;8363018;28;20120;-89
2022/10/31 20:24:39;;;;;;;148.00;56.28;;;;;;;;;;8362216;28;20053;-81
2022/10/31 20:28:42;;;;;;;161.57;66.22;;;;;;;;;;8362902;28;20041;-82
2022/10/31 20:32:44;;;;;;;185.77;70.60;;;;;;;;;;8366126;28;20071;-81
2022/10/31 20:36:49;;;;;;;338.42;111.55;;;;;;;;;;8368680;28;20049;-81
2022/10/31 20:40:53;;;;;;;399.65;101.90;;;;;;;;;;8367700;28;20133;-81
2022/10/31 20:44:57;;;;;;;279.10;85.70;;;;;;;;;;8367950;28;20079;-81
2022/10/31 20:48:59;;;;;;;284.13;88.53;;;;;;;;;;8368290;28;20073;-80
2022/10/31 20:53:02;;;;;;;237.32;88.43;;;;;;;;;;8367990;28;20480;-82
2022/10/31 20:57:06;;;;;;;170.80;61.25;;;;;;;;;;8367938;28;20049;-82
2022/10/31 21:01:14;;;;;;;203.07;78.25;;;;;;;;;;8368171;28;20048;-87
2022/10/31 21:05:16;;;;;;;164.25;66.20;;;;;;;;;;8357529;28;20099;-81
2022/10/31 21:09:19;;;;;;;131.55;54.20;;;;;;;;;;8367917;28;20053;-81
2022/10/31 21:13:23;;;;;;;125.65;48.53;;;;;;;;;;8381441;28;20060;-81
2022/10/31 21:17:26;;;;;;;109.60;43.15;;;;;;;;;;8387718;28;20401;-82
2022/10/31 21:21:31;;;;;;;114.15;45.63;;;;;;;;;;8387248;28;20052;-81
2022/10/31 21:25:36;;;;;;;92.32;37.30;;;;;;;;;;8388497;28;20136;-84
2022/10/31 21:29:40;;;;;;;95.57;34.63;;;;;;;;;;8386654;28;20052;-82
2022/10/31 21:33:44;;;;;;;80.68;32.30;;;;;;;;;;8385463;28;20095;-81
2022/10/31 21:37:46;;;;;;;315.10;94.75;;;;;;;;;;8376143;28;20514;-81
2022/10/31 21:41:49;;;;;;;159.63;56.33;;;;;;;;;;8366062;28;20056;-86
2022/10/31 21:45:53;;;;;;;134.55;48.70;;;;;;;;;;8366624;28;20436;-81
2022/10/31 21:49:55;;;;;;;107.30;39.20;;;;;;;;;;8366013;28;20550;-83
2022/10/31 21:58:18;;;;;;;90.97;34.35;;;;;;;;;;8377924;28;20040;-86
2022/10/31 22:02:21;;;;;;;94.10;35.92;;;;;;;;;;8365567;28;20492;-81
2022/10/31 22:06:26;;;;;;;101.22;35.45;;;;;;;;;;8365566;28;20098;-81
2022/10/31 22:10:28;;;;;;;111.43;39.50;;;;;;;;;;8365076;28;20052;-82
2022/10/31 22:14:30;;;;;;;117.82;45.88;;;;;;;;;;8356614;28;20099;-81
2022/10/31 22:18:35;;;;;;;240.52;92.50;;;;;;;;;;8365185;28;20560;-87
2022/10/31 22:22:37;;;;;;;149.77;57.33;;;;;;;;;;8365076;28;20041;-83
2022/10/31 22:26:40;;;;;;;124.70;46.40;;;;;;;;;;8365197;28;20053;-83
2022/10/31 22:30:42;;;;;;;119.35;45.25;;;;;;;;;;8364683;28;20041;-82
2022/10/31 22:34:46;;;;;;;117.85;42.75;;;;;;;;;;8354070;28;20077;-83
2022/10/31 22:38:49;;;;;;;104.85;37.28;;;;;;;;;;8360495;28;20053;-82
2022/10/31 22:42:51;;;;;;;102.70;38.92;;;;;;;;;;8364425;28;20113;-84
2022/10/31 22:46:54;;;;;;;92.10;35.85;;;;;;;;;;8364634;28;20409;-83
2022/10/31 22:51:04;;;;;;;92.32;36.88;;;;;;;;;;8364026;28;20136;-83
2022/10/31 22:55:08;;;;;;;107.82;41.13;;;;;;;;;;8363720;28;20114;-84
2022/10/31 22:59:13;;;;;;;97.03;36.65;;;;;;;;;;8363760;28;20053;-85
2022/10/31 23:03:15;;;;;;;144.00;54.80;;;;;;;;;;8363796;28;20152;-84
2022/10/31 23:07:19;;;;;;;180.40;61.10;;;;;;;;;;8363926;28;20473;-85
2022/10/31 23:11:23;;;;;;;99.75;40.90;;;;;;;;;;8364394;28;20048;-86
2022/10/31 23:15:25;;;;;;;90.68;36.78;;;;;;;;;;8363819;28;20139;-81
2022/10/31 23:19:28;;;;;;;106.13;40.55;;;;;;;;;;8363255;28;20051;-82
2022/10/31 23:23:35;;;;;;;217.45;75.47;;;;;;;;;;8349540;28;20053;-81
2022/10/31 23:27:37;;;;;;;366.05;121.18;;;;;;;;;;8363525;28;20048;-88
2022/10/31 23:31:40;;;;;;;397.98;121.65;;;;;;;;;;8363547;28;20052;-81
2022/10/31 23:35:43;;;;;;;166.52;58.28;;;;;;;;;;8363107;28;20054;-82
2022/10/31 23:39:47;;;;;;;119.38;44.17;;;;;;;;;;8361140;28;20056;-82
2022/10/31 23:43:50;;;;;;;107.82;40.58;;;;;;;;;;8362830;28;20049;-84
2022/10/31 23:47:52;;;;;;;174.15;58.10;;;;;;;;;;8362555;28;20052;-84
2022/10/31 23:51:56;;;;;;;138.35;51.83;;;;;;;;;;8362978;28;20040;-81
2022/10/31 23:56:01;;;;;;;149.30;57.05;;;;;;;;;;8362777;28;20045;-81
